sensor_id;sensor_type;location;lat;lon;timestamp;temperature;humidity
41471;DHT22;27211;51.220;5.308;2022-11-04T16:01:21;12.90;99.90
41471;DHT22;27211;51.220;5.308;2022-11-04T16:03:53;12.80;99.90
41471;DHT22;27211;51.220;5.308;2022-11-04T16:06:32;12.60;99.90
41471;DHT22;27211;51.220;5.308;2022-11-04T16:09:02;12.60;99.90
41471;DHT22;27211;51.220;5.308;2022-11-04T16:11:28;12.50;99.90
41471;DHT22;27211;51.220;5.308;2022-11-04T16:14:23;12.40;99.90
41471;DHT22;27211;51.220;5.308;2022-11-04T16:16:51;12.40;99.90
41471;DHT22;27211;51.220;5.308;2022-11-04T16:19:31;12.30;99.90
41471;DHT22;27211;51.220;5.308;2022-11-04T16:22:03;12.20;99.90
41471;DHT22;27211;51.220;5.308;2022-11-04T16:24:35;12.10;99.90
41471;DHT22;27211;51.220;5.308;2022-11-04T16:27:01;12.10;99.90
41471;DHT22;27211;51.220;5.308;2022-11-04T16:29:31;12.00;99.90
41471;DHT22;27211;51.220;5.308;2022-11-04T16:32:27;12.00;99.90
41471;DHT22;27211;51.220;5.308;2022-11-04T16:34:57;11.90;99.90
41471;DHT22;27211;51.220;5.308;2022-11-04T16:37:25;11.90;99.90
41471;DHT22;27211;51.220;5.308;2022-11-04T16:39:51;11.90;99.90
41471;DHT22;27211;51.220;5.308;2022-11-04T16:42:17;11.80;99.90
41471;DHT22;27211;51.220;5.308;2022-11-04T16:44:48;11.80;99.90
41471;DHT22;27211;51.220;5.308;2022-11-04T16:47:16;11.70;99.90
41471;DHT22;27211;51.220;5.308;2022-11-04T16:49:43;11.60;99.90
41471;DHT22;27211;51.220;5.308;2022-11-04T16:52:16;11.50;99.90
41471;DHT22;27211;51.220;5.308;2022-11-04T16:54:46;11.50;99.90
41471;DHT22;27211;51.220;5.308;2022-11-04T16:57:13;11.50;99.90
41471;DHT22;27211;51.220;5.308;2022-11-04T16:59:40;11.60;99.90
41471;DHT22;27211;51.220;5.308;2022-11-04T17:02:25;11.60;99.90
41471;DHT22;27211;51.220;5.308;2022-11-04T17:04:55;11.70;99.90
41471;DHT22;27211;51.220;5.308;2022-11-04T17:07:21;11.70;99.90
41471;DHT22;27211;51.220;5.308;2022-11-04T17:09:47;11.70;99.90
41471;DHT22;27211;51.220;5.308;2022-11-04T17:12:13;11.60;99.90
41471;DHT22;27211;51.220;5.308;2022-11-04T17:14:39;11.50;99.90
41471;DHT22;27211;51.220;5.308;2022-11-04T17:17:05;11.50;99.90
41471;DHT22;27211;51.220;5.308;2022-11-04T17:19:32;11.40;99.90
41471;DHT22;27211;51.220;5.308;2022-11-04T17:21:59;11.40;99.90
41471;DHT22;27211;51.220;5.308;2022-11-04T17:24:27;11.40;99.90
41471;DHT22;27211;51.220;5.308;2022-11-04T17:26:53;11.40;99.90
41471;DHT22;27211;51.220;5.308;2022-11-04T17:29:19;11.60;99.90
41471;DHT22;27211;51.220;5.308;2022-11-04T17:31:45;11.60;99.90
41471;DHT22;27211;51.220;5.308;2022-11-04T17:34:11;11.70;99.90
41471;DHT22;27211;51.220;5.308;2022-11-04T17:36:37;11.60;99.90
41471;DHT22;27211;51.220;5.308;2022-11-04T17:39:03;11.50;99.90
41471;DHT22;27211;51.220;5.308;2022-11-04T17:41:29;11.40;99.90
41471;DHT22;27211;51.220;5.308;2022-11-04T17:44:13;11.40;99.90
41471;DHT22;27211;51.220;5.308;2022-11-04T17:46:39;11.40;99.90
41471;DHT22;27211;51.220;5.308;2022-11-04T17:49:15;11.30;99.90
41471;DHT22;27211;51.220;5.308;2022-11-04T17:51:44;11.30;99.90
41471;DHT22;27211;51.220;5.308;2022-11-04T17:54:10;11.40;99.90
41471;DHT22;27211;51.220;5.308;2022-11-04T17:56:37;11.50;99.90
41471;DHT22;27211;51.220;5.308;2022-11-04T17:59:03;11.50;99.90
41471;DHT22;27211;51.220;5.308;2022-11-04T18:01:30;11.50;99.90
41471;DHT22;27211;51.220;5.308;2022-11-04T18:03:57;11.40;99.90
41471;DHT22;27211;51.220;5.308;2022-11-04T18:06:23;11.50;99.90
41471;DHT22;27211;51.220;5.308;2022-11-04T18:08:54;11.50;99.90
41471;DHT22;27211;51.220;5.308;2022-11-04T18:11:21;11.50;99.90
41471;DHT22;27211;51.220;5.308;2022-11-04T18:14:05;11.50;99.90
41471;DHT22;27211;51.220;5.308;2022-11-04T18:16:31;11.40;99.90
41471;DHT22;27211;51.220;5.308;2022-11-04T18:18:58;11.60;99.90
41471;DHT22;27211;51.220;5.308;2022-11-04T18:21:24;11.50;99.90
41471;DHT22;27211;51.220;5.308;2022-11-04T18:23:50;11.40;99.90
41471;DHT22;27211;51.220;5.308;2022-11-04T18:26:16;11.40;99.90
41471;DHT22;27211;51.220;5.308;2022-11-04T18:28:42;11.30;99.90
41471;DHT22;27211;51.220;5.308;2022-11-04T18:31:09;11.30;99.90
41471;DHT22;27211;51.220;5.308;2022-11-04T18:33:35;11.20;99.90
41471;DHT22;27211;51.220;5.308;2022-11-04T18:36:02;11.20;99.90
41471;DHT22;27211;51.220;5.308;2022-11-04T18:38:28;11.30;99.90
41471;DHT22;27211;51.220;5.308;2022-11-04T18:40:54;11.20;99.90
41471;DHT22;27211;51.220;5.308;2022-11-04T18:43:20;11.10;99.90
41471;DHT22;27211;51.220;5.308;2022-11-04T18:45:48;11.10;99.90
41471;DHT22;27211;51.220;5.308;2022-11-04T18:48:15;11.10;99.90
41471;DHT22;27211;51.220;5.308;2022-11-04T18:50:41;11.00;99.90
41471;DHT22;27211;51.220;5.308;2022-11-04T18:53:07;11.00;99.90
41471;DHT22;27211;51.220;5.308;2022-11-04T18:55:33;11.00;99.90
41471;DHT22;27211;51.220;5.308;2022-11-04T18:57:59;11.00;99.90
41471;DHT22;27211;51.220;5.308;2022-11-04T19:00:25;11.10;99.90
41471;DHT22;27211;51.220;5.308;2022-11-04T19:02:51;11.00;99.90
41471;DHT22;27211;51.220;5.308;2022-11-04T19:05:16;10.80;99.90
41471;DHT22;27211;51.220;5.308;2022-11-04T19:07:43;10.80;99.90
41471;DHT22;27211;51.220;5.308;2022-11-04T19:10:10;10.60;99.90
41471;DHT22;27211;51.220;5.308;2022-11-04T19:12:35;10.50;99.90
41471;DHT22;27211;51.220;5.308;2022-11-04T19:15:19;10.40;99.90
41471;DHT22;27211;51.220;5.308;2022-11-04T19:17:46;10.30;99.90
41471;DHT22;27211;51.220;5.308;2022-11-04T19:20:11;10.20;99.90
41471;DHT22;27211;51.220;5.308;2022-11-04T19:22:37;10.30;99.90
41471;DHT22;27211;51.220;5.308;2022-11-04T19:25:03;10.40;99.90
41471;DHT22;27211;51.220;5.308;2022-11-04T19:27:30;10.40;99.90
41471;DHT22;27211;51.220;5.308;2022-11-04T19:29:55;10.40;99.90
41471;DHT22;27211;51.220;5.308;2022-11-04T19:32:21;10.30;99.90
41471;DHT22;27211;51.220;5.308;2022-11-04T19:34:47;10.20;99.90
41471;DHT22;27211;51.220;5.308;2022-11-04T19:37:14;10.20;99.90
41471;DHT22;27211;51.220;5.308;2022-11-04T19:39:40;10.20;99.90
41471;DHT22;27211;51.220;5.308;2022-11-04T19:42:06;10.20;99.90
41471;DHT22;27211;51.220;5.308;2022-11-04T19:44:50;10.10;99.90
41471;DHT22;27211;51.220;5.308;2022-11-04T19:47:16;10.10;99.90
41471;DHT22;27211;51.220;5.308;2022-11-04T19:49:42;10.20;99.90
41471;DHT22;27211;51.220;5.308;2022-11-04T19:52:07;10.20;99.90
41471;DHT22;27211;51.220;5.308;2022-11-04T19:54:33;10.20;99.90
41471;DHT22;27211;51.220;5.308;2022-11-04T19:56:59;10.10;99.90
41471;DHT22;27211;51.220;5.308;2022-11-04T19:59:26;10.00;99.90
41471;DHT22;27211;51.220;5.308;2022-11-04T20:01:51;10.10;99.90
41471;DHT22;27211;51.220;5.308;2022-11-04T20:04:18;10.00;99.90
41471;DHT22;27211;51.220;5.308;2022-11-04T20:06:44;10.00;99.90
41471;DHT22;27211;51.220;5.308;2022-11-04T20:09:10;10.00;99.90
41471;DHT22;27211;51.220;5.308;2022-11-04T20:11:37;9.90;99.90
41471;DHT22;27211;51.220;5.308;2022-11-04T20:14:35;9.80;99.90
41471;DHT22;27211;51.220;5.308;2022-11-04T20:17:00;9.60;99.90
41471;DHT22;27211;51.220;5.308;2022-11-04T20:19:27;9.80;99.90
41471;DHT22;27211;51.220;5.308;2022-11-04T20:21:52;9.60;99.90
41471;DHT22;27211;51.220;5.308;2022-11-04T20:24:18;9.50;99.90
41471;DHT22;27211;51.220;5.308;2022-11-04T20:26:44;9.50;99.90
41471;DHT22;27211;51.220;5.308;2022-11-04T20:29:13;9.50;99.90
41471;DHT22;27211;51.220;5.308;2022-11-04T20:31:40;9.60;99.90
41471;DHT22;27211;51.220;5.308;2022-11-04T20:34:12;9.70;99.90
41471;DHT22;27211;51.220;5.308;2022-11-04T20:36:39;9.60;99.90
41471;DHT22;27211;51.220;5.308;2022-11-04T20:39:17;9.60;99.90
41471;DHT22;27211;51.220;5.308;2022-11-04T20:41:45;9.40;99.90
41471;DHT22;27211;51.220;5.308;2022-11-04T20:44:14;9.50;99.90
41471;DHT22;27211;51.220;5.308;2022-11-04T20:46:42;9.40;99.90
41471;DHT22;27211;51.220;5.308;2022-11-04T20:49:08;9.20;99.90
41471;DHT22;27211;51.220;5.308;2022-11-04T20:51:35;9.30;99.90
41471;DHT22;27211;51.220;5.308;2022-11-04T20:54:04;9.20;99.90
41471;DHT22;27211;51.220;5.308;2022-11-04T20:56:33;9.20;99.90
41471;DHT22;27211;51.220;5.308;2022-11-04T20:59:00;9.20;99.90
41471;DHT22;27211;51.220;5.308;2022-11-04T21:01:31;9.40;99.90
41471;DHT22;27211;51.220;5.308;2022-11-04T21:04:00;9.40;99.90
41471;DHT22;27211;51.220;5.308;2022-11-04T21:06:26;9.40;99.90
41471;DHT22;27211;51.220;5.308;2022-11-04T21:08:52;9.50;99.90
41471;DHT22;27211;51.220;5.308;2022-11-04T21:11:19;9.50;99.90
41471;DHT22;27211;51.220;5.308;2022-11-04T21:13:45;9.20;99.90
41471;DHT22;27211;51.220;5.308;2022-11-04T21:16:14;9.00;99.90
41471;DHT22;27211;51.220;5.308;2022-11-04T21:18:41;8.90;99.90
41471;DHT22;27211;51.220;5.308;2022-11-04T21:21:08;8.90;99.90
41471;DHT22;27211;51.220;5.308;2022-11-04T21:23:36;8.80;99.90
41471;DHT22;27211;51.220;5.308;2022-11-04T21:26:06;8.70;99.90
41471;DHT22;27211;51.220;5.308;2022-11-04T21:28:32;8.70;99.90
41471;DHT22;27211;51.220;5.308;2022-11-04T21:31:05;8.80;99.90
41471;DHT22;27211;51.220;5.308;2022-11-04T21:33:31;8.70;99.90
41471;DHT22;27211;51.220;5.308;2022-11-04T21:36:04;8.70;99.90
41471;DHT22;27211;51.220;5.308;2022-11-04T21:38:31;8.80;99.90
41471;DHT22;27211;51.220;5.308;2022-11-04T21:41:09;8.90;99.90
41471;DHT22;27211;51.220;5.308;2022-11-04T21:43:38;8.90;99.90
41471;DHT22;27211;51.220;5.308;2022-11-04T21:46:10;8.80;99.90
41471;DHT22;27211;51.220;5.308;2022-11-04T21:48:37;9.00;99.90
41471;DHT22;27211;51.220;5.308;2022-11-04T21:51:08;9.20;99.90
41471;DHT22;27211;51.220;5.308;2022-11-04T21:53:35;9.20;99.90
41471;DHT22;27211;51.220;5.308;2022-11-04T21:56:10;9.20;99.90
41471;DHT22;27211;51.220;5.308;2022-11-04T21:58:37;9.10;99.90
41471;DHT22;27211;51.220;5.308;2022-11-04T22:01:05;9.20;99.90
41471;DHT22;27211;51.220;5.308;2022-11-04T22:03:32;9.20;99.90
41471;DHT22;27211;51.220;5.308;2022-11-04T22:06:09;9.30;99.90
41471;DHT22;27211;51.220;5.308;2022-11-04T22:08:36;9.40;99.90
41471;DHT22;27211;51.220;5.308;2022-11-04T22:11:14;9.50;99.90
41471;DHT22;27211;51.220;5.308;2022-11-04T22:13:41;9.70;99.90
41471;DHT22;27211;51.220;5.308;2022-11-04T22:16:15;9.90;99.90
41471;DHT22;27211;51.220;5.308;2022-11-04T22:18:42;10.10;99.90
41471;DHT22;27211;51.220;5.308;2022-11-04T22:21:13;10.30;99.90
41471;DHT22;27211;51.220;5.308;2022-11-04T22:23:40;10.30;99.90
41471;DHT22;27211;51.220;5.308;2022-11-04T22:26:15;10.20;99.90
41471;DHT22;27211;51.220;5.308;2022-11-04T22:28:41;10.10;99.90
41471;DHT22;27211;51.220;5.308;2022-11-04T22:33:37;9.70;99.90
41471;DHT22;27211;51.220;5.308;2022-11-04T22:36:04;9.70;99.90
41471;DHT22;27211;51.220;5.308;2022-11-04T22:38:31;9.90;99.90
41471;DHT22;27211;51.220;5.308;2022-11-04T22:40:58;9.80;99.90
41471;DHT22;27211;51.220;5.308;2022-11-04T22:43:25;9.70;99.90
41471;DHT22;27211;51.220;5.308;2022-11-04T22:45:52;9.70;99.90
41471;DHT22;27211;51.220;5.308;2022-11-04T22:48:18;9.70;99.90
41471;DHT22;27211;51.220;5.308;2022-11-04T22:50:45;9.80;99.90
41471;DHT22;27211;51.220;5.308;2022-11-04T22:53:12;9.70;99.90
41471;DHT22;27211;51.220;5.308;2022-11-04T22:55:38;9.70;99.90
41471;DHT22;27211;51.220;5.308;2022-11-04T22:58:04;9.60;99.90
41471;DHT22;27211;51.220;5.308;2022-11-04T23:00:30;9.50;99.90
41471;DHT22;27211;51.220;5.308;2022-11-04T23:02:56;9.50;99.90
41471;DHT22;27211;51.220;5.308;2022-11-04T23:05:22;9.40;99.90
41471;DHT22;27211;51.220;5.308;2022-11-04T23:07:51;9.40;99.90
41471;DHT22;27211;51.220;5.308;2022-11-04T23:10:17;9.40;99.90
41471;DHT22;27211;51.220;5.308;2022-11-04T23:13:01;9.50;99.90
41471;DHT22;27211;51.220;5.308;2022-11-04T23:15:45;9.90;99.90
41471;DHT22;27211;51.220;5.308;2022-11-04T23:18:29;10.10;99.90
41471;DHT22;27211;51.220;5.308;2022-11-04T23:21:14;10.00;99.90
41471;DHT22;27211;51.220;5.308;2022-11-04T23:23:58;9.80;99.90
41471;DHT22;27211;51.220;5.308;2022-11-04T23:26:43;9.80;99.90
41471;DHT22;27211;51.220;5.308;2022-11-04T23:29:10;9.90;99.90
41471;DHT22;27211;51.220;5.308;2022-11-04T23:31:55;10.20;99.90
41471;DHT22;27211;51.220;5.308;2022-11-04T23:34:20;10.00;99.90
41471;DHT22;27211;51.220;5.308;2022-11-04T23:37:05;10.00;99.90
41471;DHT22;27211;51.220;5.308;2022-11-04T23:39:47;10.00;99.90
41471;DHT22;27211;51.220;5.308;2022-11-04T23:42:19;10.30;99.90
41471;DHT22;27211;51.220;5.308;2022-11-04T23:44:46;10.20;99.90
41471;DHT22;27211;51.220;5.308;2022-11-04T23:47:34;10.10;99.90
41471;DHT22;27211;51.220;5.308;2022-11-04T23:50:20;10.00;99.90
41471;DHT22;27211;51.220;5.308;2022-11-04T23:53:05;10.10;99.90
41471;DHT22;27211;51.220;5.308;2022-11-04T23:55:50;9.90;99.90
41471;DHT22;27211;51.220;5.308;2022-11-04T23:58:35;9.50;99.90
